Terminal Aerodrome Forecast
Issued by NWS Norman, OK

Home | Current Version | Previous Version | Text Only | Print | Product List | Glossary On
Versions: 1 2 3 4 5 6 7 8 9 10 11 12 13 14 15 16
000
FTUS44 KOUN 270525
TAFSPS
TAF
KSPS 270525Z 2706/2806 12010KT P6SM SCT018 BKN250
     FM271100 16012KT P6SM BKN015
     FM271600 17015G22KT P6SM SCT025
     FM272200 17015G22KT P6SM VCTS SCT040CB BKN250
     FM280100 16010KT P6SM FEW040 BKN250=

USA.gov is the U.S. government's official web portal to all federal, state and local government web resources and services.